createdAt,value
2023-05-11T00:00:52.531Z,5.84
2023-05-11T00:03:19.296Z,5.82
2023-05-11T00:05:49.517Z,5.82
2023-05-11T00:08:17.335Z,5.78
2023-05-11T00:10:47.893Z,5.75
2023-05-11T00:13:14.634Z,5.76
2023-05-11T00:15:41.706Z,5.77
2023-05-11T00:18:08.477Z,5.78
2023-05-11T00:20:35.230Z,5.78
2023-05-11T00:23:02.557Z,5.76
2023-05-11T00:25:29.230Z,5.78
2023-05-11T00:27:55.841Z,5.79
2023-05-11T00:30:22.632Z,5.71
2023-05-11T00:32:52.236Z,5.63
2023-05-11T00:35:19.056Z,5.57
2023-05-11T00:37:45.989Z,5.56
2023-05-11T00:40:13.007Z,5.58
2023-05-11T00:42:40.417Z,5.59
2023-05-11T00:45:07.461Z,5.58
2023-05-11T00:47:34.095Z,5.58
2023-05-11T00:50:00.841Z,5.55
2023-05-11T00:52:27.450Z,5.52
2023-05-11T00:54:54.183Z,5.47
2023-05-11T00:57:21.461Z,5.45
2023-05-11T00:59:49.408Z,5.43
2023-05-11T01:02:16.155Z,5.44
2023-05-11T01:04:42.867Z,5.46
2023-05-11T01:07:15.855Z,5.46
2023-05-11T01:09:51.665Z,5.41
2023-05-11T01:12:34.786Z,5.37
2023-05-11T01:15:09.200Z,5.37
2023-05-11T01:18:08.264Z,5.37
2023-05-11T01:20:35.042Z,5.32
2023-05-11T01:23:15.318Z,5.27
2023-05-11T01:26:11.572Z,5.26
2023-05-11T01:29:17.019Z,5.27
2023-05-11T01:31:46.913Z,5.18
2023-05-11T01:34:17.687Z,5.07
2023-05-11T01:36:51.810Z,4.94
2023-05-11T01:39:26.824Z,4.91
2023-05-11T01:41:54.439Z,4.95
2023-05-11T01:44:21.302Z,4.97
2023-05-11T01:46:47.885Z,4.92
2023-05-11T01:49:14.470Z,4.85
2023-05-11T01:51:41.073Z,4.77
2023-05-11T01:54:08.651Z,4.73
2023-05-11T01:56:35.509Z,4.69
2023-05-11T01:59:02.138Z,4.69
2023-05-11T02:01:29.213Z,4.69
2023-05-11T02:03:55.918Z,4.64
2023-05-11T02:06:22.709Z,4.61
2023-05-11T02:08:49.649Z,4.64
2023-05-11T02:11:16.305Z,4.67
2023-05-11T02:13:44.655Z,4.69
2023-05-11T02:16:11.468Z,4.67
2023-05-11T02:18:41.492Z,4.65
2023-05-11T02:21:09.131Z,4.67
2023-05-11T02:23:36.802Z,4.69
2023-05-11T02:26:03.986Z,4.70
2023-05-11T02:28:30.571Z,4.72
2023-05-11T02:31:00.527Z,4.74
2023-05-11T02:33:31.237Z,4.73
2023-05-11T02:35:57.929Z,4.69
2023-05-11T02:38:30.797Z,4.67
2023-05-11T02:40:59.039Z,4.65
2023-05-11T02:43:26.132Z,4.67
2023-05-11T02:46:00.778Z,4.72
2023-05-11T02:48:29.173Z,4.74
2023-05-11T02:50:56.323Z,4.78
2023-05-11T02:53:26.299Z,4.77
2023-05-11T02:55:53.613Z,4.72
2023-05-11T02:58:20.577Z,4.68
2023-05-11T03:00:50.440Z,4.68
2023-05-11T03:03:17.397Z,4.67
2023-05-11T03:05:44.246Z,4.68
2023-05-11T03:08:10.831Z,4.66
2023-05-11T03:10:37.621Z,4.68
2023-05-11T03:13:04.232Z,4.71
2023-05-11T03:15:31.234Z,4.76
2023-05-11T03:17:59.222Z,4.82
2023-05-11T03:20:25.872Z,4.87
2023-05-11T03:22:52.510Z,4.95
2023-05-11T03:25:19.422Z,5.02
2023-05-11T03:27:46.431Z,5.07
2023-05-11T03:30:13.995Z,5.08
2023-05-11T03:32:43.342Z,5.06
2023-05-11T03:35:10.024Z,5.12
2023-05-11T03:37:38.304Z,5.17
2023-05-11T03:40:06.671Z,5.22
2023-05-11T03:42:39.146Z,5.24
2023-05-11T03:45:06.912Z,5.26
2023-05-11T03:47:33.679Z,5.28
2023-05-11T03:50:01.032Z,5.33
2023-05-11T03:52:27.670Z,5.36
2023-05-11T03:54:54.367Z,5.40
2023-05-11T03:57:21.020Z,5.45
2023-05-11T03:59:47.776Z,5.48
2023-05-11T04:02:14.464Z,5.50
2023-05-11T04:04:41.212Z,5.51
2023-05-11T04:07:07.966Z,5.58
2023-05-11T04:09:34.754Z,5.65
2023-05-11T04:12:01.344Z,5.77
2023-05-11T04:14:28.529Z,5.90
2023-05-11T04:16:55.155Z,6.07
2023-05-11T04:19:21.756Z,6.24
2023-05-11T04:21:48.356Z,6.40
2023-05-11T04:24:15.006Z,6.56
2023-05-11T04:26:41.651Z,6.70
2023-05-11T04:29:09.786Z,6.81
2023-05-11T04:31:36.502Z,6.92
2023-05-11T04:34:07.363Z,7.02
2023-05-11T04:36:34.940Z,7.10
2023-05-11T04:39:01.808Z,7.17
2023-05-11T04:41:28.655Z,7.26
2023-05-11T04:43:57.819Z,7.36
2023-05-11T04:46:24.526Z,7.45
2023-05-11T04:48:51.377Z,7.54
2023-05-11T04:51:18.029Z,7.61
2023-05-11T04:53:45.028Z,7.68
2023-05-11T04:56:12.616Z,7.80
2023-05-11T04:58:39.232Z,7.93
2023-05-11T05:01:05.986Z,8.06
2023-05-11T05:03:32.634Z,8.20
2023-05-11T05:05:59.269Z,8.30
2023-05-11T05:08:26.036Z,8.38
2023-05-11T05:10:52.683Z,8.44
2023-05-11T05:13:19.613Z,8.55
2023-05-11T05:15:46.316Z,8.64
2023-05-11T05:18:14.295Z,8.73
2023-05-11T05:20:42.974Z,8.83
2023-05-11T05:23:09.582Z,8.93
2023-05-11T05:25:36.155Z,9.04
2023-05-11T05:28:02.752Z,9.10
2023-05-11T05:30:29.801Z,9.14
2023-05-11T05:32:56.786Z,9.20
2023-05-11T05:35:24.885Z,9.26
2023-05-11T05:37:51.648Z,9.37
2023-05-11T05:40:18.634Z,9.47
2023-05-11T05:42:48.104Z,9.57
2023-05-11T05:45:19.249Z,9.59
2023-05-11T05:47:46.461Z,9.66
2023-05-11T05:50:13.883Z,9.75
2023-05-11T05:52:41.891Z,9.88
2023-05-11T05:55:08.898Z,10.03
2023-05-11T05:57:35.918Z,10.18
2023-05-11T06:00:03.556Z,10.35
2023-05-11T06:02:39.631Z,10.53
2023-05-11T06:05:07.715Z,10.67
2023-05-11T06:07:34.472Z,10.78
2023-05-11T06:10:01.106Z,10.89
2023-05-11T06:12:28.961Z,10.94
2023-05-11T06:14:55.787Z,11.00
2023-05-11T06:17:22.695Z,11.03
2023-05-11T06:19:50.119Z,11.07
2023-05-11T06:22:17.114Z,11.16
2023-05-11T06:24:43.766Z,11.21
2023-05-11T06:27:10.538Z,11.26
2023-05-11T06:29:38.216Z,11.28
2023-05-11T06:32:06.261Z,11.30
2023-05-11T06:34:33.486Z,11.32
2023-05-11T06:37:01.102Z,11.36
2023-05-11T06:39:27.776Z,11.36
2023-05-11T06:41:56.305Z,11.41
2023-05-11T06:44:23.912Z,11.48
2023-05-11T06:46:52.752Z,11.57
2023-05-11T06:49:19.589Z,11.67
2023-05-11T06:51:46.344Z,11.82
2023-05-11T06:54:12.922Z,11.95
2023-05-11T06:56:39.657Z,12.03
2023-05-11T06:59:06.914Z,12.20
2023-05-11T07:01:33.647Z,12.34
2023-05-11T07:04:00.628Z,12.47
2023-05-11T07:06:27.814Z,12.57
2023-05-11T07:08:54.482Z,12.71
2023-05-11T07:11:22.448Z,12.83
2023-05-11T07:13:49.273Z,12.88
2023-05-11T07:16:16.137Z,12.96
2023-05-11T07:18:42.905Z,13.06
2023-05-11T07:21:09.649Z,13.16
2023-05-11T07:23:36.270Z,13.24
2023-05-11T07:26:08.852Z,13.31
2023-05-11T07:28:38.533Z,13.35
2023-05-11T07:31:05.435Z,13.43
2023-05-11T07:33:34.684Z,13.51
2023-05-11T07:36:01.436Z,13.59
2023-05-11T07:38:28.159Z,13.60
2023-05-11T07:40:54.797Z,13.65
2023-05-11T07:43:21.401Z,13.74
2023-05-11T07:45:48.098Z,13.85
2023-05-11T07:48:15.190Z,13.91
2023-05-11T07:50:42.734Z,13.97
2023-05-11T07:53:09.651Z,14.03
2023-05-11T07:55:36.518Z,14.07
2023-05-11T07:58:03.143Z,14.13
2023-05-11T08:00:29.774Z,14.23
2023-05-11T08:02:56.884Z,14.30
2023-05-11T08:05:23.986Z,14.32
2023-05-11T08:07:50.849Z,14.39
2023-05-11T08:10:17.652Z,14.51
2023-05-11T08:12:44.306Z,14.64
2023-05-11T08:15:11.643Z,14.67
2023-05-11T08:17:38.433Z,14.74
2023-05-11T08:20:06.775Z,14.87
2023-05-11T08:22:33.485Z,14.99
2023-05-11T08:25:00.212Z,15.13
2023-05-11T08:27:26.800Z,15.30
2023-05-11T08:29:53.410Z,15.48
2023-05-11T08:32:20.018Z,15.58
2023-05-11T08:34:46.938Z,15.70
2023-05-11T08:37:13.752Z,15.80
2023-05-11T08:39:47.228Z,15.76
2023-05-11T08:42:18.044Z,15.67
2023-05-11T08:44:44.712Z,15.67
2023-05-11T08:47:22.685Z,15.60
2023-05-11T08:49:52.630Z,15.56
2023-05-11T08:52:19.352Z,15.55
2023-05-11T08:54:47.149Z,15.51
2023-05-11T08:57:14.135Z,15.43
2023-05-11T08:59:42.215Z,15.36
2023-05-11T09:02:10.846Z,15.34
2023-05-11T09:04:37.558Z,15.40
2023-05-11T09:07:04.344Z,15.47
2023-05-11T09:09:31.218Z,15.43
2023-05-11T09:11:58.798Z,15.31
2023-05-11T09:14:27.674Z,15.25
2023-05-11T09:16:54.716Z,15.19
2023-05-11T09:19:21.924Z,15.16
2023-05-11T09:21:48.539Z,15.04
2023-05-11T09:24:15.154Z,14.93
2023-05-11T09:26:41.918Z,14.90
2023-05-11T09:29:08.575Z,14.88
2023-05-11T09:31:42.916Z,14.91
2023-05-11T09:34:16.688Z,14.98
2023-05-11T09:36:44.416Z,15.08
2023-05-11T09:39:15.386Z,15.19
2023-05-11T09:41:42.726Z,15.23
2023-05-11T09:44:13.775Z,15.23
2023-05-11T09:46:41.729Z,15.22
2023-05-11T09:49:08.812Z,15.21
2023-05-11T09:51:40.687Z,15.23
2023-05-11T09:54:18.511Z,15.27
2023-05-11T09:56:49.039Z,15.29
2023-05-11T09:59:17.538Z,15.24
2023-05-11T10:01:44.351Z,15.19
2023-05-11T10:04:22.090Z,15.14
2023-05-11T10:06:53.888Z,15.15
2023-05-11T10:09:24.448Z,15.18
2023-05-11T10:11:51.085Z,15.20
2023-05-11T10:14:17.829Z,15.21
2023-05-11T10:16:44.556Z,15.20
2023-05-11T10:19:11.680Z,15.26
2023-05-11T10:21:39.882Z,15.38
2023-05-11T10:24:07.669Z,15.47
2023-05-11T10:26:34.446Z,15.59
2023-05-11T10:29:01.412Z,15.71
2023-05-11T10:31:29.124Z,15.80
2023-05-11T10:33:57.246Z,15.83
2023-05-11T10:36:24.307Z,15.90
2023-05-11T10:38:51.412Z,16.03
2023-05-11T10:41:41.441Z,16.16
2023-05-11T10:44:20.305Z,16.21
2023-05-11T10:47:12.142Z,16.22
2023-05-11T10:49:49.404Z,16.28
2023-05-11T10:52:55.835Z,16.30
2023-05-11T10:55:38.657Z,16.28
2023-05-11T10:58:10.895Z,16.24
2023-05-11T11:00:55.916Z,16.18
2023-05-11T11:03:22.629Z,16.23
2023-05-11T11:05:49.286Z,16.31
2023-05-11T11:08:16.110Z,16.37
2023-05-11T11:10:46.537Z,16.47
2023-05-11T11:13:14.050Z,16.55
2023-05-11T11:15:56.756Z,16.46
2023-05-11T11:18:24.219Z,16.43
2023-05-11T11:20:52.931Z,16.51
2023-05-11T11:23:44.923Z,16.63
2023-05-11T11:26:15.326Z,16.68
2023-05-11T11:28:54.417Z,16.60
2023-05-11T11:31:34.436Z,16.58
2023-05-11T11:34:29.477Z,16.47
2023-05-11T11:36:56.087Z,16.26
2023-05-11T11:39:22.881Z,16.18
2023-05-11T11:42:02.868Z,16.15
2023-05-11T11:44:29.662Z,16.10
2023-05-11T11:47:15.689Z,16.10
2023-05-11T11:49:43.959Z,15.99
2023-05-11T11:52:14.589Z,15.88
2023-05-11T11:54:43.856Z,15.83
2023-05-11T11:57:49.507Z,15.85
2023-05-11T12:00:16.407Z,15.89
2023-05-11T12:02:44.186Z,15.93
2023-05-11T12:05:19.016Z,16.03
2023-05-11T12:07:47.206Z,16.20
2023-05-11T12:10:14.348Z,16.37
2023-05-11T12:12:45.106Z,16.51
2023-05-11T12:15:25.925Z,16.61
2023-05-11T12:17:52.603Z,16.76
2023-05-11T12:20:19.849Z,16.83
2023-05-11T12:22:48.933Z,16.82
2023-05-11T12:25:18.101Z,16.73
2023-05-11T12:27:55.465Z,16.53
2023-05-11T12:30:26.734Z,16.39
2023-05-11T12:35:25.235Z,16.33
2023-05-11T12:37:52.037Z,16.38
2023-05-11T12:40:19.022Z,16.44
2023-05-11T12:42:59.299Z,16.46
2023-05-11T12:45:26.626Z,16.46
2023-05-11T12:47:55.734Z,16.48
2023-05-11T12:50:22.541Z,16.51
2023-05-11T12:52:50.422Z,16.52
2023-05-11T12:55:28.538Z,16.57
2023-05-11T12:57:58.415Z,16.69
2023-05-11T13:00:25.606Z,16.82
2023-05-11T13:02:53.700Z,16.97
2023-05-11T13:05:24.957Z,17.11
2023-05-11T13:08:04.853Z,17.27
2023-05-11T13:10:32.222Z,17.42
2023-05-11T13:12:59.495Z,17.49
2023-05-11T13:15:28.513Z,17.57
2023-05-11T13:17:57.155Z,17.66
2023-05-11T13:20:33.514Z,17.66
2023-05-11T13:23:10.114Z,17.58
2023-05-11T13:25:45.955Z,17.54
2023-05-11T13:28:14.481Z,17.47
2023-05-11T13:30:41.592Z,17.40
2023-05-11T13:33:08.333Z,17.32
2023-05-11T13:35:39.187Z,17.17
2023-05-11T13:38:05.860Z,17.00
2023-05-11T13:40:32.531Z,16.83
2023-05-11T13:43:00.405Z,16.80
2023-05-11T13:45:27.369Z,16.76
2023-05-11T13:47:55.461Z,16.70
2023-05-11T13:50:26.188Z,16.61
2023-05-11T13:52:53.305Z,16.55
2023-05-11T13:55:21.108Z,16.50
2023-05-11T13:57:48.340Z,16.39
2023-05-11T14:00:16.050Z,16.27
2023-05-11T14:02:43.562Z,16.18
2023-05-11T14:05:10.287Z,16.18
2023-05-11T14:07:47.171Z,16.23
2023-05-11T14:10:16.350Z,16.30
2023-05-11T14:12:43.294Z,16.37
2023-05-11T14:15:10.372Z,16.44
2023-05-11T14:17:37.229Z,16.52
2023-05-11T14:20:05.311Z,16.53
2023-05-11T14:22:31.977Z,16.55
2023-05-11T14:24:58.666Z,16.57
2023-05-11T14:27:25.297Z,16.58
2023-05-11T14:29:52.330Z,16.58
2023-05-11T14:32:19.506Z,16.57
2023-05-11T14:34:46.835Z,16.62
2023-05-11T14:37:13.486Z,16.67
2023-05-11T14:39:41.072Z,16.73
2023-05-11T14:42:08.416Z,16.75
2023-05-11T14:44:35.178Z,16.72
2023-05-11T14:47:01.875Z,16.64
2023-05-11T14:49:28.878Z,16.55
2023-05-11T14:51:56.712Z,16.51
2023-05-11T14:54:23.496Z,16.53
2023-05-11T14:56:54.172Z,16.56
2023-05-11T14:59:24.432Z,16.59
2023-05-11T15:01:51.099Z,16.63
2023-05-11T15:04:18.715Z,16.67
2023-05-11T15:06:45.410Z,16.65
2023-05-11T15:09:12.136Z,16.64
2023-05-11T15:11:38.743Z,16.60
2023-05-11T15:14:06.409Z,16.58
2023-05-11T15:16:33.085Z,16.57
2023-05-11T15:19:00.023Z,16.57
2023-05-11T15:21:27.270Z,16.57
2023-05-11T15:23:54.448Z,16.57
2023-05-11T15:26:22.384Z,16.57
2023-05-11T15:28:49.087Z,16.56
2023-05-11T15:31:15.956Z,16.53
2023-05-11T15:33:43.116Z,16.51
2023-05-11T15:36:13.856Z,16.48
2023-05-11T15:38:41.177Z,16.45
2023-05-11T15:41:07.946Z,16.39
2023-05-11T15:43:35.164Z,16.31
2023-05-11T15:46:03.681Z,16.25
2023-05-11T15:48:30.568Z,16.22
2023-05-11T15:50:59.205Z,16.18
2023-05-11T15:53:26.066Z,16.16
2023-05-11T15:55:55.555Z,16.14
2023-05-11T15:58:22.942Z,16.14
2023-05-11T16:00:49.837Z,16.13
2023-05-11T16:03:16.984Z,16.11
2023-05-11T16:05:44.745Z,16.05
2023-05-11T16:08:11.443Z,16.05
2023-05-11T16:10:38.464Z,16.05
2023-05-11T16:13:05.312Z,16.06
2023-05-11T16:15:32.115Z,16.03
2023-05-11T16:17:58.919Z,16.01
2023-05-11T16:20:27.127Z,16.00
2023-05-11T16:22:53.749Z,16.00
2023-05-11T16:25:21.058Z,15.95
2023-05-11T16:27:47.664Z,15.89
2023-05-11T16:30:22.393Z,15.85
2023-05-11T16:32:51.596Z,15.82
2023-05-11T16:35:18.446Z,15.80
2023-05-11T16:37:46.806Z,15.77
2023-05-11T16:40:13.605Z,15.73
2023-05-11T16:42:40.206Z,15.69
2023-05-11T16:45:07.483Z,15.63
2023-05-11T16:47:34.199Z,15.58
2023-05-11T16:50:00.984Z,15.53
2023-05-11T16:52:27.723Z,15.48
2023-05-11T16:54:55.320Z,15.42
2023-05-11T16:57:25.225Z,15.34
2023-05-11T16:59:52.098Z,15.29
2023-05-11T17:02:20.022Z,15.22
2023-05-11T17:06:04.040Z,15.15
2023-05-11T17:08:30.670Z,15.05
2023-05-11T17:10:57.231Z,14.91
2023-05-11T17:13:23.971Z,14.80
2023-05-11T17:15:51.655Z,14.68
2023-05-11T17:18:18.351Z,14.54
2023-05-11T17:20:45.096Z,14.45
2023-05-11T17:23:11.746Z,14.35
2023-05-11T17:25:38.387Z,14.17
2023-05-11T17:28:05.150Z,14.04
2023-05-11T17:30:47.334Z,13.98
2023-05-11T17:33:14.606Z,13.93
2023-05-11T17:35:41.422Z,13.89
2023-05-11T17:38:08.007Z,13.83
2023-05-11T17:40:34.754Z,13.78
2023-05-11T17:43:01.868Z,13.73
2023-05-11T17:45:29.141Z,13.66
2023-05-11T17:47:55.954Z,13.59
2023-05-11T17:50:23.477Z,13.52
2023-05-11T17:52:51.168Z,13.45
2023-05-11T17:55:18.522Z,13.39
2023-05-11T17:57:45.414Z,13.35
2023-05-11T18:00:13.117Z,13.28
2023-05-11T18:02:39.984Z,13.21
2023-05-11T18:05:07.222Z,13.14
2023-05-11T18:07:33.953Z,13.07
2023-05-11T18:10:00.580Z,13.02
2023-05-11T18:12:27.408Z,12.96
2023-05-11T18:14:54.042Z,12.93
2023-05-11T18:17:20.962Z,12.88
2023-05-11T18:19:47.554Z,12.83
2023-05-11T18:22:14.157Z,12.79
2023-05-11T18:24:40.841Z,12.74
2023-05-11T18:27:07.461Z,12.70
2023-05-11T18:29:34.042Z,12.67
2023-05-11T18:32:56.192Z,12.62
2023-05-11T18:35:22.912Z,12.56
2023-05-11T18:37:49.837Z,12.54
2023-05-11T18:40:16.983Z,12.51
2023-05-11T18:42:44.427Z,12.50
2023-05-11T18:45:11.247Z,12.47
2023-05-11T18:47:38.218Z,12.44
2023-05-11T18:50:05.958Z,12.42
2023-05-11T18:52:32.701Z,12.41
2023-05-11T18:54:59.486Z,12.40
2023-05-11T18:57:26.086Z,12.38
2023-05-11T18:59:52.870Z,12.36
2023-05-11T19:02:19.761Z,12.34
2023-05-11T19:04:46.574Z,12.31
2023-05-11T19:07:13.180Z,12.30
2023-05-11T19:09:39.948Z,12.28
2023-05-11T19:12:07.383Z,12.23
2023-05-11T19:14:34.917Z,12.21
2023-05-11T19:17:02.351Z,12.20
2023-05-11T19:19:29.306Z,12.18
2023-05-11T19:21:55.964Z,12.20
2023-05-11T19:24:22.741Z,12.19
2023-05-11T19:26:58.914Z,12.18
2023-05-11T19:29:33.064Z,12.15
2023-05-11T19:31:59.753Z,12.11
2023-05-11T19:34:26.482Z,12.06
2023-05-11T19:36:53.078Z,12.03
2023-05-11T19:39:19.750Z,12.00
2023-05-11T19:41:46.424Z,11.95
2023-05-11T19:44:13.041Z,11.86
2023-05-11T19:46:45.830Z,11.77
2023-05-11T19:49:13.836Z,11.72
2023-05-11T19:51:40.543Z,11.65
2023-05-11T19:54:07.206Z,11.56
2023-05-11T19:56:34.009Z,11.50
2023-05-11T19:59:01.295Z,11.48
2023-05-11T20:01:28.300Z,11.45
2023-05-11T20:03:55.512Z,11.39
2023-05-11T20:06:22.559Z,11.31
2023-05-11T20:08:49.136Z,11.27
2023-05-11T20:11:15.764Z,11.22
2023-05-11T20:13:43.998Z,11.18
2023-05-11T20:16:10.868Z,11.13
2023-05-11T20:18:37.605Z,11.07
2023-05-11T20:21:04.383Z,10.97
2023-05-11T20:23:31.071Z,10.86
2023-05-11T20:25:57.681Z,10.84
2023-05-11T20:28:27.310Z,10.83
2023-05-11T20:30:57.195Z,10.81
2023-05-11T20:35:53.751Z,10.69
2023-05-11T20:38:20.633Z,10.66
2023-05-11T20:40:47.241Z,10.65
2023-05-11T20:43:14.934Z,10.66
2023-05-11T20:45:42.331Z,10.62
2023-05-11T20:48:09.151Z,10.59
2023-05-11T20:50:35.943Z,10.56
2023-05-11T20:53:02.604Z,10.53
2023-05-11T20:55:29.203Z,10.49
2023-05-11T20:57:55.819Z,10.48
2023-05-11T21:00:23.104Z,10.46
2023-05-11T21:02:50.020Z,10.45
2023-05-11T21:05:17.040Z,10.42
2023-05-11T21:09:30.729Z,10.31
2023-05-11T21:11:57.380Z,10.23
2023-05-11T21:14:23.970Z,10.18
2023-05-11T21:16:50.630Z,10.14
2023-05-11T21:19:18.490Z,10.10
2023-05-11T21:21:45.192Z,10.06
2023-05-11T21:24:13.989Z,10.03
2023-05-11T21:26:40.823Z,9.98
2023-05-11T21:29:07.438Z,9.92
2023-05-11T21:31:34.081Z,9.91
2023-05-11T21:34:00.781Z,9.86
2023-05-11T21:36:28.337Z,9.83
2023-05-11T21:38:55.157Z,9.80
2023-05-11T21:41:22.563Z,9.77
2023-05-11T21:43:49.233Z,9.70
2023-05-11T21:46:15.967Z,9.66
2023-05-11T21:48:42.950Z,9.65
2023-05-11T21:51:09.555Z,9.62
2023-05-11T21:53:36.206Z,9.57
2023-05-11T21:56:02.955Z,9.52
2023-05-11T21:58:29.565Z,9.49
2023-05-11T22:00:57.367Z,9.42
2023-05-11T22:03:24.290Z,9.43
2023-05-11T22:05:51.256Z,9.44
2023-05-11T22:08:18.026Z,9.43
2023-05-11T22:10:44.757Z,9.41
2023-05-11T22:13:11.368Z,9.38
2023-05-11T22:15:38.409Z,9.37
2023-05-11T22:18:05.208Z,9.37
2023-05-11T22:20:32.027Z,9.40
2023-05-11T22:22:59.431Z,9.42
2023-05-11T22:25:27.741Z,9.44
2023-05-11T22:27:54.514Z,9.44
2023-05-11T22:30:21.256Z,9.43
2023-05-11T22:32:48.285Z,9.46
2023-05-11T22:35:15.164Z,9.49
2023-05-11T22:37:41.863Z,9.51
2023-05-11T22:40:09.628Z,9.53
2023-05-11T22:42:36.233Z,9.55
2023-05-11T22:45:02.869Z,9.55
2023-05-11T22:47:29.614Z,9.54
2023-05-11T22:49:56.419Z,9.52
2023-05-11T22:52:23.061Z,9.53
2023-05-11T22:54:54.693Z,9.53
2023-05-11T22:57:24.061Z,9.57
2023-05-11T22:59:50.816Z,9.56
2023-05-11T23:02:17.512Z,9.54
2023-05-11T23:04:44.553Z,9.54
2023-05-11T23:07:13.082Z,9.56
2023-05-11T23:09:40.037Z,9.57
2023-05-11T23:12:07.629Z,9.55
2023-05-11T23:14:34.173Z,9.53
2023-05-11T23:17:00.834Z,9.48
2023-05-11T23:19:27.444Z,9.45
2023-05-11T23:21:54.062Z,9.45
2023-05-11T23:24:21.296Z,9.43
2023-05-11T23:26:47.879Z,9.42
2023-05-11T23:29:14.665Z,9.41
2023-05-11T23:31:41.361Z,9.42
2023-05-11T23:34:08.665Z,9.43
2023-05-11T23:36:35.291Z,9.43
2023-05-11T23:39:01.929Z,9.41
2023-05-11T23:41:28.533Z,9.40
2023-05-11T23:43:55.124Z,9.41
2023-05-11T23:46:21.780Z,9.41
2023-05-11T23:48:48.707Z,9.39
2023-05-11T23:51:16.542Z,9.38
2023-05-11T23:53:43.143Z,9.38
2023-05-11T23:56:09.942Z,9.35
2023-05-11T23:58:36.610Z,9.33
